createdAt,value
2023-05-09T00:02:35.100Z,21.40
2023-05-09T00:07:37.603Z,21.44
2023-05-09T00:12:39.936Z,21.31
2023-05-09T00:17:42.350Z,21.28
2023-05-09T00:22:44.571Z,21.07
2023-05-09T00:27:47.370Z,21.16
2023-05-09T00:32:49.923Z,21.12
2023-05-09T00:37:52.146Z,20.96
2023-05-09T00:42:56.342Z,21.00
2023-05-09T00:47:58.799Z,21.09
2023-05-09T00:53:01.417Z,21.06
2023-05-09T00:58:04.475Z,21.20
2023-05-09T01:03:07.234Z,21.15
2023-05-09T01:14:07.060Z,21.06
2023-05-09T01:19:29.223Z,21.05
2023-05-09T01:24:34.138Z,21.14
2023-05-09T01:29:42.952Z,21.09
2023-05-09T01:34:46.275Z,21.04
2023-05-09T01:39:52.548Z,21.04
2023-05-09T01:44:55.241Z,20.90
2023-05-09T01:49:58.268Z,20.98
2023-05-09T01:55:02.922Z,20.93
2023-05-09T02:00:08.567Z,20.96
2023-05-09T02:05:12.556Z,21.02
2023-05-09T02:10:16.659Z,21.05
2023-05-09T02:15:19.052Z,21.05
2023-05-09T02:20:21.576Z,20.98
2023-05-09T02:25:24.390Z,20.94
2023-05-09T02:30:32.053Z,21.02
2023-05-09T02:35:35.961Z,20.87
2023-05-09T02:40:39.748Z,20.92
2023-05-09T02:45:42.443Z,20.97
2023-05-09T02:50:46.278Z,20.92
2023-05-09T02:55:48.495Z,20.79
2023-05-09T03:00:51.392Z,20.98
2023-05-09T03:05:53.805Z,20.90
2023-05-09T03:10:56.021Z,20.77
2023-05-09T03:15:58.292Z,20.62
2023-05-09T03:21:00.494Z,20.83
2023-05-09T03:26:02.729Z,20.63
2023-05-09T03:31:05.384Z,20.73
2023-05-09T03:36:08.191Z,20.54
2023-05-09T03:41:10.563Z,20.60
2023-05-09T03:46:12.817Z,20.82
2023-05-09T03:51:15.128Z,20.55
2023-05-09T03:56:17.301Z,20.71
2023-05-09T04:01:19.704Z,20.66
2023-05-09T04:06:22.152Z,20.48
2023-05-09T04:11:24.469Z,20.45
2023-05-09T04:16:26.887Z,20.89
2023-05-09T04:21:29.156Z,20.78
2023-05-09T04:26:31.995Z,20.65
2023-05-09T04:31:34.359Z,20.75
2023-05-09T04:36:36.646Z,20.75
2023-05-09T04:41:39.067Z,20.80
2023-05-09T04:46:41.295Z,20.58
2023-05-09T04:51:43.642Z,20.70
2023-05-09T04:56:45.996Z,20.68
2023-05-09T05:01:48.307Z,20.66
2023-05-09T05:06:50.588Z,20.64
2023-05-09T05:12:00.666Z,20.55
2023-05-09T05:17:39.311Z,20.62
2023-05-09T05:22:41.733Z,20.60
2023-05-09T05:27:43.915Z,20.47
2023-05-09T05:32:46.238Z,20.66
2023-05-09T05:37:49.191Z,20.59
2023-05-09T05:42:51.441Z,20.61
2023-05-09T05:47:53.740Z,20.66
2023-05-09T05:52:56.302Z,20.69
2023-05-09T05:57:58.464Z,20.45
2023-05-09T06:03:01.235Z,20.54
2023-05-09T06:08:03.652Z,20.58
2023-05-09T06:13:05.903Z,20.64
2023-05-09T06:18:09.309Z,20.60
2023-05-09T06:23:11.542Z,20.64
2023-05-09T06:28:13.716Z,20.59
2023-05-09T06:33:16.129Z,20.51
2023-05-09T06:38:18.272Z,20.68
2023-05-09T06:43:20.450Z,20.65
2023-05-09T06:48:24.415Z,20.66
2023-05-09T06:53:26.649Z,20.66
2023-05-09T06:58:28.987Z,20.60
2023-05-09T07:03:31.251Z,20.78
2023-05-09T07:08:33.570Z,20.83
2023-05-09T07:13:36.400Z,20.74
2023-05-09T07:18:38.627Z,20.83
2023-05-09T07:23:40.942Z,20.39
2023-05-09T07:28:43.193Z,20.50
2023-05-09T07:33:45.597Z,20.45
2023-05-09T07:38:53.019Z,20.55
2023-05-09T07:43:55.205Z,20.73
2023-05-09T07:48:57.421Z,20.73
2023-05-09T07:53:59.633Z,20.89
2023-05-09T07:59:03.686Z,20.94
2023-05-09T08:04:07.099Z,21.09
2023-05-09T08:09:09.451Z,21.00
2023-05-09T08:14:12.769Z,21.02
2023-05-09T08:19:15.533Z,20.78
2023-05-09T08:24:17.730Z,20.67
2023-05-09T08:29:19.932Z,20.61
2023-05-09T08:34:22.118Z,20.69
2023-05-09T08:39:24.367Z,20.64
2023-05-09T08:44:28.315Z,20.65
2023-05-09T08:49:30.952Z,20.48
2023-05-09T08:54:33.906Z,20.31
2023-05-09T08:59:37.864Z,20.35
2023-05-09T09:04:40.528Z,20.19
2023-05-09T09:09:50.547Z,20.23
2023-05-09T09:14:57.292Z,20.26
2023-05-09T09:20:05.030Z,20.18
2023-05-09T09:25:07.419Z,20.32
2023-05-09T09:30:11.458Z,20.45
2023-05-09T09:35:13.698Z,20.65
2023-05-09T09:40:16.805Z,20.69
2023-05-09T09:45:20.684Z,20.79
2023-05-09T09:50:26.000Z,20.65
2023-05-09T09:55:29.733Z,21.03
2023-05-09T10:00:33.216Z,20.91
2023-05-09T10:05:39.100Z,21.10
2023-05-09T10:10:41.760Z,20.81
2023-05-09T10:15:53.062Z,21.05
2023-05-09T10:21:01.236Z,20.91
2023-05-09T10:26:17.319Z,20.93
2023-05-09T10:31:25.852Z,20.64
2023-05-09T10:36:28.957Z,20.52
2023-05-09T10:41:34.020Z,20.54
2023-05-09T10:46:37.443Z,20.44
2023-05-09T10:51:39.824Z,20.45
2023-05-09T10:56:42.003Z,20.55
2023-05-09T11:01:44.194Z,20.40
2023-05-09T11:06:52.580Z,20.45
2023-05-09T11:12:09.353Z,20.48
2023-05-09T11:17:15.808Z,20.27
2023-05-09T11:22:22.343Z,20.27
2023-05-09T11:27:26.940Z,20.21
2023-05-09T11:32:33.539Z,20.10
2023-05-09T11:37:55.722Z,20.19
2023-05-09T11:42:59.305Z,20.12
2023-05-09T11:48:02.534Z,19.78
2023-05-09T11:53:04.887Z,19.96
2023-05-09T11:58:08.048Z,20.07
2023-05-09T12:03:10.381Z,20.00
2023-05-09T12:08:14.225Z,19.75
2023-05-09T12:13:16.687Z,19.73
2023-05-09T12:18:18.916Z,19.88
2023-05-09T12:23:21.189Z,20.02
2023-05-09T12:28:24.545Z,19.96
2023-05-09T12:33:27.683Z,19.93
2023-05-09T12:38:30.141Z,20.06
2023-05-09T12:43:34.289Z,20.24
2023-05-09T12:48:38.786Z,20.32
2023-05-09T12:53:42.685Z,20.42
2023-05-09T12:58:55.687Z,20.24
2023-05-09T13:04:04.113Z,20.15
2023-05-09T13:09:06.696Z,20.21
2023-05-09T13:14:09.483Z,20.22
2023-05-09T13:19:11.892Z,20.36
2023-05-09T13:24:14.609Z,20.11
2023-05-09T13:29:16.979Z,20.02
2023-05-09T13:34:19.215Z,19.83
2023-05-09T13:39:21.392Z,20.01
2023-05-09T13:44:25.195Z,19.91
2023-05-09T13:49:30.862Z,19.84
2023-05-09T13:54:35.698Z,19.80
2023-05-09T13:59:38.340Z,19.87
2023-05-09T14:04:41.858Z,19.88
2023-05-09T14:09:44.434Z,19.78
2023-05-09T14:14:46.755Z,19.87
2023-05-09T14:19:49.290Z,19.71
2023-05-09T14:24:51.571Z,19.83
2023-05-09T14:29:53.869Z,19.83
2023-05-09T14:34:56.086Z,19.89
2023-05-09T14:39:58.774Z,19.86
2023-05-09T14:45:01.153Z,19.70
2023-05-09T14:50:04.148Z,19.83
2023-05-09T14:55:07.735Z,19.80
2023-05-09T15:00:20.536Z,19.60
2023-05-09T15:05:24.335Z,19.75
2023-05-09T15:10:28.090Z,19.75
2023-05-09T15:15:30.348Z,19.59
2023-05-09T15:20:32.731Z,19.72
2023-05-09T15:25:35.414Z,19.40
2023-05-09T15:30:39.453Z,19.52
2023-05-09T15:35:41.986Z,19.36
2023-05-09T15:40:44.229Z,19.20
2023-05-09T15:45:47.137Z,19.28
2023-05-09T15:50:50.035Z,19.15
2023-05-09T15:55:52.330Z,19.08
2023-05-09T16:00:54.503Z,19.10
2023-05-09T16:05:57.080Z,19.03
2023-05-09T16:11:01.330Z,19.06
2023-05-09T16:16:03.845Z,18.99
2023-05-09T16:21:06.234Z,18.94
2023-05-09T16:26:08.433Z,19.12
2023-05-09T16:31:10.704Z,18.92
2023-05-09T16:36:13.480Z,19.02
2023-05-09T16:41:16.348Z,18.88
2023-05-09T16:46:18.656Z,18.80
2023-05-09T16:51:21.001Z,18.99
2023-05-09T16:56:23.743Z,18.86
2023-05-09T17:01:26.189Z,18.69
2023-05-09T17:06:28.864Z,18.74
2023-05-09T17:11:31.091Z,18.76
2023-05-09T17:16:34.321Z,18.38
2023-05-09T17:21:41.781Z,18.55
2023-05-09T17:26:44.115Z,18.55
2023-05-09T17:31:46.345Z,18.63
2023-05-09T17:36:48.643Z,18.62
2023-05-09T17:41:50.932Z,18.69
2023-05-09T17:46:53.156Z,18.67
2023-05-09T17:51:58.346Z,18.53
2023-05-09T17:57:02.197Z,18.65
2023-05-09T18:02:04.410Z,18.58
2023-05-09T18:07:06.756Z,18.75
2023-05-09T18:12:10.299Z,18.56
2023-05-09T18:17:12.762Z,18.64
2023-05-09T18:22:16.101Z,18.59
2023-05-09T18:27:18.309Z,18.66
2023-05-09T18:32:21.197Z,18.65
2023-05-09T18:37:25.110Z,18.77
2023-05-09T18:42:27.392Z,18.66
2023-05-09T18:47:29.636Z,18.63
2023-05-09T18:52:32.564Z,18.55
2023-05-09T18:57:34.815Z,18.63
2023-05-09T19:02:37.164Z,18.70
2023-05-09T19:07:39.741Z,18.56
2023-05-09T19:12:42.288Z,18.67
2023-05-09T19:17:45.296Z,18.45
2023-05-09T19:22:51.657Z,18.37
2023-05-09T19:27:53.921Z,18.50
2023-05-09T19:32:56.476Z,18.38
2023-05-09T19:37:59.044Z,18.45
2023-05-09T19:43:01.342Z,18.60
2023-05-09T19:48:03.800Z,18.63
2023-05-09T19:53:06.084Z,18.58
2023-05-09T19:58:08.345Z,18.64
2023-05-09T20:03:10.908Z,18.43
2023-05-09T20:08:13.415Z,18.57
2023-05-09T20:13:15.876Z,18.76
2023-05-09T20:18:18.149Z,18.60
2023-05-09T20:23:20.562Z,18.52
2023-05-09T20:28:23.403Z,18.52
2023-05-09T20:33:25.720Z,18.43
2023-05-09T20:38:28.013Z,18.38
2023-05-09T20:43:31.059Z,18.10
2023-05-09T20:48:33.629Z,18.16
2023-05-09T20:53:38.034Z,17.84
2023-05-09T20:58:40.334Z,18.00
2023-05-09T21:03:42.715Z,17.95
2023-05-09T21:08:45.099Z,18.31
2023-05-09T21:13:48.815Z,17.93
2023-05-09T21:18:51.198Z,17.64
2023-05-09T21:23:53.530Z,17.74
2023-05-09T21:28:55.853Z,17.53
2023-05-09T21:33:59.670Z,17.98
2023-05-09T21:39:07.621Z,18.07
2023-05-09T21:44:11.573Z,17.52
2023-05-09T21:49:17.076Z,17.77
2023-05-09T21:54:19.438Z,17.84
2023-05-09T21:59:22.735Z,17.78
2023-05-09T22:04:24.987Z,17.87
2023-05-09T22:09:27.926Z,17.69
2023-05-09T22:14:30.161Z,18.24
2023-05-09T22:19:32.524Z,18.16
2023-05-09T22:24:35.056Z,17.98
2023-05-09T22:29:37.576Z,17.71
2023-05-09T22:34:39.772Z,17.96
2023-05-09T22:39:41.985Z,17.62
2023-05-09T22:44:44.354Z,17.79
2023-05-09T22:49:46.857Z,17.78
2023-05-09T22:54:49.323Z,17.57
2023-05-09T22:59:51.676Z,17.55
2023-05-09T23:04:53.949Z,17.52
2023-05-09T23:09:56.309Z,17.83
2023-05-09T23:14:58.801Z,17.67
2023-05-09T23:20:02.008Z,18.03
2023-05-09T23:25:04.585Z,17.42
2023-05-09T23:30:10.701Z,17.67
2023-05-09T23:35:13.166Z,17.96
2023-05-09T23:40:15.770Z,17.99
2023-05-09T23:45:18.376Z,17.45
2023-05-09T23:50:21.168Z,17.26
2023-05-09T23:55:23.910Z,17.40
